createdAt,value
2022-11-29T00:00:48.697Z,50.866737
2022-11-29T00:01:48.748Z,50.866760
2022-11-29T00:02:48.776Z,50.866734
2022-11-29T00:03:48.681Z,50.866825
2022-11-29T00:04:48.668Z,50.866642
2022-11-29T00:05:48.662Z,50.866726
2022-11-29T00:06:49.473Z,50.866703
2022-11-29T00:07:48.671Z,50.866703
2022-11-29T00:08:49.455Z,50.866657
2022-11-29T00:09:48.629Z,50.866661
2022-11-29T00:10:48.616Z,50.866642
2022-11-29T00:11:48.620Z,50.866631
2022-11-29T00:12:48.606Z,50.866665
2022-11-29T00:13:48.594Z,50.866661
2022-11-29T00:14:48.588Z,50.866657
2022-11-29T00:15:48.604Z,50.866638
2022-11-29T00:16:48.623Z,50.866646
2022-11-29T00:17:48.575Z,50.866653
2022-11-29T00:18:48.551Z,50.866634
2022-11-29T00:19:48.547Z,50.866638
2022-11-29T00:20:48.536Z,50.866596
2022-11-29T00:21:48.528Z,50.866657
2022-11-29T00:22:48.525Z,50.866604
2022-11-29T00:23:48.516Z,50.866581
2022-11-29T00:24:48.507Z,50.866657
2022-11-29T00:25:48.496Z,50.866631
2022-11-29T00:26:48.494Z,50.866638
2022-11-29T00:34:30.995Z,50.866581
2022-11-29T00:35:30.168Z,50.866638
2022-11-29T00:36:30.160Z,50.866657
2022-11-29T00:37:30.153Z,50.866627
2022-11-29T00:38:31.150Z,50.866558
2022-11-29T00:39:30.143Z,50.866692
2022-11-29T00:40:30.137Z,50.866680
2022-11-29T00:41:30.111Z,50.866581
2022-11-29T00:42:30.109Z,50.866550
2022-11-29T00:43:30.102Z,50.866505
2022-11-29T00:44:30.092Z,50.866570
2022-11-29T00:45:30.096Z,50.866631
2022-11-29T00:46:30.094Z,50.866627
2022-11-29T00:47:30.069Z,50.866646
2022-11-29T00:48:30.064Z,50.866631
2022-11-29T00:49:30.060Z,50.866600
2022-11-29T00:50:30.054Z,50.866669
2022-11-29T00:51:30.064Z,50.866631
2022-11-29T00:52:30.027Z,50.866688
2022-11-29T00:53:31.023Z,50.866730
2022-11-29T00:54:30.027Z,50.866703
2022-11-29T00:55:30.592Z,50.866661
2022-11-29T00:56:30.023Z,50.866653
2022-11-29T00:57:30.000Z,50.866676
2022-11-29T00:58:29.991Z,50.866653
2022-11-29T00:59:29.997Z,50.866707
2022-11-29T01:00:29.979Z,50.866684
2022-11-29T01:01:30.016Z,50.866653
2022-11-29T01:02:29.971Z,50.866665
2022-11-29T01:03:29.949Z,50.866692
2022-11-29T01:04:29.941Z,50.866676
2022-11-29T01:05:29.954Z,50.866840
2022-11-29T01:06:29.930Z,50.866661
2022-11-29T01:07:29.946Z,50.866703
2022-11-29T01:08:29.912Z,50.866779
2022-11-29T01:09:29.903Z,50.866669
2022-11-29T01:10:29.903Z,50.866673
2022-11-29T01:11:29.894Z,50.866573
2022-11-29T01:12:29.888Z,50.866547
2022-11-29T01:13:29.869Z,50.866673
2022-11-29T01:14:29.858Z,50.866684
2022-11-29T01:15:29.856Z,50.866650
2022-11-29T01:16:29.896Z,50.866653
2022-11-29T01:17:29.841Z,50.866631
2022-11-29T01:18:29.831Z,50.866665
2022-11-29T01:19:29.827Z,50.866547
2022-11-29T01:20:29.819Z,50.866570
2022-11-29T01:21:29.809Z,50.866280
2022-11-29T01:22:29.797Z,50.866184
2022-11-29T01:23:29.789Z,50.866268
2022-11-29T01:24:29.786Z,50.866016
2022-11-29T01:25:29.778Z,50.866005
2022-11-29T01:26:29.772Z,50.866383
2022-11-29T01:27:29.756Z,50.866367
2022-11-29T01:28:30.769Z,50.866367
2022-11-29T01:29:29.739Z,50.866367
2022-11-29T01:30:29.808Z,50.866367
2022-11-29T01:31:29.738Z,50.866711
2022-11-29T01:32:29.719Z,50.866890
2022-11-29T01:33:30.500Z,50.866982
2022-11-29T01:34:29.701Z,50.866924
2022-11-29T01:35:29.694Z,50.866829
2022-11-29T01:36:29.681Z,50.866707
2022-11-29T01:37:29.674Z,50.866722
2022-11-29T01:38:29.678Z,50.866833
2022-11-29T01:39:30.493Z,50.867043
2022-11-29T01:40:29.651Z,50.866676
2022-11-29T01:41:29.633Z,50.866730
2022-11-29T01:42:29.644Z,50.866653
2022-11-29T01:43:29.628Z,50.866570
2022-11-29T01:44:29.624Z,50.866795
2022-11-29T01:45:29.627Z,50.866730
2022-11-29T01:46:29.717Z,50.866768
2022-11-29T01:47:29.607Z,50.866695
2022-11-29T01:48:29.587Z,50.866711
2022-11-29T01:49:29.587Z,50.866680
2022-11-29T01:50:29.575Z,50.866714
2022-11-29T01:51:29.564Z,50.866714
2022-11-29T01:52:29.566Z,50.866737
2022-11-29T01:53:29.548Z,50.866753
2022-11-29T01:54:29.565Z,50.866756
2022-11-29T01:55:29.533Z,50.866737
2022-11-29T01:56:29.536Z,50.866753
2022-11-29T01:57:29.526Z,50.866745
2022-11-29T01:58:29.519Z,50.866753
2022-11-29T01:59:30.078Z,50.866760
2022-11-29T02:00:29.494Z,50.866760
2022-11-29T02:01:29.561Z,50.866783
2022-11-29T02:02:29.556Z,50.866745
2022-11-29T02:03:29.469Z,50.866764
2022-11-29T02:04:30.508Z,50.866783
2022-11-29T02:05:29.475Z,50.866764
2022-11-29T02:06:29.447Z,50.866760
2022-11-29T02:07:29.488Z,50.866768
2022-11-29T02:08:29.433Z,50.866768
2022-11-29T02:09:29.418Z,50.866718
2022-11-29T02:10:29.414Z,50.866726
2022-11-29T02:11:29.406Z,50.866756
2022-11-29T02:12:29.396Z,50.866802
2022-11-29T02:13:29.394Z,50.866737
2022-11-29T02:14:29.385Z,50.866787
2022-11-29T02:15:29.439Z,50.866768
2022-11-29T02:16:29.374Z,50.866840
2022-11-29T02:17:29.369Z,50.866821
2022-11-29T02:18:29.347Z,50.866798
2022-11-29T02:19:29.344Z,50.866791
2022-11-29T02:20:30.004Z,50.866707
2022-11-29T02:21:29.341Z,50.866764
2022-11-29T02:22:29.314Z,50.866829
2022-11-29T02:23:29.336Z,50.866806
2022-11-29T02:24:29.303Z,50.866787
2022-11-29T02:25:29.300Z,50.866837
2022-11-29T02:26:29.303Z,50.866833
2022-11-29T02:27:29.285Z,50.866947
2022-11-29T02:28:30.087Z,50.866730
2022-11-29T02:29:29.272Z,50.866795
2022-11-29T02:30:29.351Z,50.866833
2022-11-29T02:31:29.275Z,50.866791
2022-11-29T02:32:29.251Z,50.866894
2022-11-29T02:33:29.244Z,50.866814
2022-11-29T02:34:29.235Z,50.866791
2022-11-29T02:35:29.230Z,50.866741
2022-11-29T02:36:29.220Z,50.866722
2022-11-29T02:37:29.240Z,50.866749
2022-11-29T02:38:29.205Z,50.866718
2022-11-29T02:39:29.206Z,50.866741
2022-11-29T02:40:29.186Z,50.866776
2022-11-29T02:41:29.171Z,50.866779
2022-11-29T02:42:30.171Z,50.866703
2022-11-29T02:43:29.161Z,50.866714
2022-11-29T02:44:29.153Z,50.866722
2022-11-29T02:45:29.147Z,50.866745
2022-11-29T02:46:29.186Z,50.866722
2022-11-29T02:47:29.140Z,50.866646
2022-11-29T02:48:29.138Z,50.866753
2022-11-29T02:49:29.122Z,50.866764
2022-11-29T02:50:29.117Z,50.866772
2022-11-29T02:51:29.093Z,50.866810
2022-11-29T02:52:29.098Z,50.866791
2022-11-29T02:53:30.010Z,50.866779
2022-11-29T02:54:29.078Z,50.866749
2022-11-29T02:55:29.081Z,50.866711
2022-11-29T02:56:29.056Z,50.866730
2022-11-29T02:57:29.068Z,50.866730
2022-11-29T02:58:29.043Z,50.866749
2022-11-29T02:59:29.040Z,50.866806
2022-11-29T03:00:29.041Z,50.866821
2022-11-29T03:01:29.053Z,50.866779
2022-11-29T03:02:29.142Z,50.866772
2022-11-29T03:03:29.006Z,50.866749
2022-11-29T03:04:29.000Z,50.866726
2022-11-29T03:05:28.990Z,50.866661
2022-11-29T03:06:29.515Z,50.866653
2022-11-29T03:07:29.136Z,50.866707
2022-11-29T03:08:28.969Z,50.866711
2022-11-29T03:09:29.957Z,50.866768
2022-11-29T03:10:28.964Z,50.866764
2022-11-29T03:11:28.947Z,50.866711
2022-11-29T03:12:28.942Z,50.866726
2022-11-29T03:13:29.920Z,50.866776
2022-11-29T03:14:28.921Z,50.866817
2022-11-29T03:15:28.942Z,50.866756
2022-11-29T03:16:28.901Z,50.866787
2022-11-29T03:17:28.900Z,50.866787
2022-11-29T03:18:28.893Z,50.866737
2022-11-29T03:19:28.881Z,50.866810
2022-11-29T03:20:29.514Z,50.866848
2022-11-29T03:21:28.862Z,50.866909
2022-11-29T03:22:28.871Z,50.866913
2022-11-29T03:23:28.847Z,50.866859
2022-11-29T03:24:28.850Z,50.866806
2022-11-29T03:25:29.592Z,50.866791
2022-11-29T03:26:28.825Z,50.866749
2022-11-29T03:27:28.828Z,50.866734
2022-11-29T03:28:28.818Z,50.866772
2022-11-29T03:29:29.516Z,50.866783
2022-11-29T03:30:28.815Z,50.866814
2022-11-29T03:31:28.879Z,50.866898
2022-11-29T03:32:28.780Z,50.866848
2022-11-29T03:33:28.778Z,50.866711
2022-11-29T03:34:28.772Z,50.866703
2022-11-29T03:35:29.526Z,50.866707
2022-11-29T03:36:29.520Z,50.866795
2022-11-29T03:37:28.739Z,50.866776
2022-11-29T03:38:28.746Z,50.866764
2022-11-29T03:39:29.595Z,50.866714
2022-11-29T03:40:28.715Z,50.866829
2022-11-29T03:41:28.706Z,50.866787
2022-11-29T03:42:28.696Z,50.866726
2022-11-29T03:43:28.700Z,50.867073
2022-11-29T03:44:28.687Z,50.867023
2022-11-29T03:45:28.681Z,50.866940
2022-11-29T03:46:28.714Z,50.866840
2022-11-29T03:47:28.661Z,50.866879
2022-11-29T03:48:28.649Z,50.866924
2022-11-29T03:49:28.648Z,50.866920
2022-11-29T03:50:28.641Z,50.866806
2022-11-29T03:51:28.639Z,50.866779
2022-11-29T03:52:28.620Z,50.866772
2022-11-29T03:53:29.525Z,50.866795
2022-11-29T03:54:28.604Z,50.866821
2022-11-29T03:55:28.595Z,50.866985
2022-11-29T03:56:28.598Z,50.866898
2022-11-29T03:57:28.581Z,50.866829
2022-11-29T03:58:28.580Z,50.866810
2022-11-29T03:59:28.575Z,50.866779
2022-11-29T04:00:28.558Z,50.866940
2022-11-29T04:01:28.693Z,50.866875
2022-11-29T04:02:28.642Z,50.866879
2022-11-29T04:03:28.535Z,50.866817
2022-11-29T04:04:28.528Z,50.866886
2022-11-29T04:05:28.520Z,50.867104
2022-11-29T04:06:28.520Z,50.866886
2022-11-29T04:07:28.566Z,50.866623
2022-11-29T04:08:28.499Z,50.866714
2022-11-29T04:09:30.032Z,50.866680
2022-11-29T04:10:28.501Z,50.866882
2022-11-29T04:11:28.487Z,50.866859
2022-11-29T04:12:28.457Z,50.866787
2022-11-29T04:13:28.450Z,50.866783
2022-11-29T04:14:28.445Z,50.866779
2022-11-29T04:15:29.107Z,50.866756
2022-11-29T04:16:28.431Z,50.866760
2022-11-29T04:17:28.416Z,50.866692
2022-11-29T04:18:28.410Z,50.866806
2022-11-29T04:19:28.406Z,50.866875
2022-11-29T04:20:28.401Z,50.866829
2022-11-29T04:21:28.399Z,50.866791
2022-11-29T04:22:28.402Z,50.866825
2022-11-29T04:23:28.373Z,50.866875
2022-11-29T04:24:28.364Z,50.866699
2022-11-29T04:25:28.361Z,50.866684
2022-11-29T04:26:33.549Z,50.866787
2022-11-29T04:27:30.352Z,50.866798
2022-11-29T04:28:28.340Z,50.866890
2022-11-29T04:29:29.106Z,50.866909
2022-11-29T04:30:29.036Z,50.866879
2022-11-29T04:31:28.379Z,50.866859
2022-11-29T04:32:28.318Z,50.866879
2022-11-29T04:33:28.295Z,50.866787
2022-11-29T04:34:28.292Z,50.866863
2022-11-29T04:35:28.282Z,50.866837
2022-11-29T04:36:28.283Z,50.866764
2022-11-29T04:37:28.269Z,50.866863
2022-11-29T04:38:28.264Z,50.866791
2022-11-29T04:39:28.238Z,50.866814
2022-11-29T04:40:30.116Z,50.866806
2022-11-29T04:41:29.231Z,50.866787
2022-11-29T04:42:28.230Z,50.866722
2022-11-29T04:43:28.225Z,50.866730
2022-11-29T04:44:29.120Z,50.866810
2022-11-29T04:45:28.198Z,50.866886
2022-11-29T04:46:28.242Z,50.866989
2022-11-29T04:47:28.187Z,50.867062
2022-11-29T04:48:29.174Z,50.866920
2022-11-29T04:49:28.177Z,50.866844
2022-11-29T04:50:28.161Z,50.866898
2022-11-29T04:51:28.155Z,50.866833
2022-11-29T04:52:29.040Z,50.866951
2022-11-29T04:53:28.150Z,50.866901
2022-11-29T04:54:28.150Z,50.866875
2022-11-29T04:55:31.035Z,50.866821
2022-11-29T04:56:30.126Z,50.866657
2022-11-29T04:57:28.111Z,50.866783
2022-11-29T04:58:28.102Z,50.866787
2022-11-29T04:59:28.099Z,50.866642
2022-11-29T05:00:28.098Z,50.866623
2022-11-29T05:01:28.150Z,50.866848
2022-11-29T05:02:28.111Z,50.866959
2022-11-29T05:03:28.065Z,50.866772
2022-11-29T05:04:29.035Z,50.866879
2022-11-29T05:05:28.050Z,50.866661
2022-11-29T05:06:28.032Z,50.866608
2022-11-29T05:07:28.080Z,50.866573
2022-11-29T05:08:28.029Z,50.866547
2022-11-29T05:09:28.013Z,50.866570
2022-11-29T05:10:28.024Z,50.866676
2022-11-29T05:11:27.999Z,50.866665
2022-11-29T05:12:27.996Z,50.866676
2022-11-29T05:13:27.985Z,50.866653
2022-11-29T05:14:27.979Z,50.866531
2022-11-29T05:15:27.974Z,50.866714
2022-11-29T05:16:27.993Z,50.866901
2022-11-29T05:17:27.965Z,50.866890
2022-11-29T05:18:27.947Z,50.866955
2022-11-29T05:19:27.947Z,50.866882
2022-11-29T05:20:29.610Z,50.866894
2022-11-29T05:21:27.921Z,50.866833
2022-11-29T05:22:27.922Z,50.866787
2022-11-29T05:23:27.914Z,50.866974
2022-11-29T05:24:28.625Z,50.866833
2022-11-29T05:25:27.891Z,50.866642
2022-11-29T05:26:28.675Z,50.866550
2022-11-29T05:27:27.878Z,50.866848
2022-11-29T05:28:28.618Z,50.866524
2022-11-29T05:29:27.864Z,50.866974
2022-11-29T05:30:27.849Z,50.866966
2022-11-29T05:31:27.864Z,50.866753
2022-11-29T05:32:27.842Z,50.867020
2022-11-29T05:33:27.826Z,50.867130
2022-11-29T05:34:34.552Z,50.866882
2022-11-29T05:35:29.816Z,50.867008
2022-11-29T05:36:27.805Z,50.867466
2022-11-29T05:37:27.794Z,50.867096
2022-11-29T05:38:27.797Z,50.866894
2022-11-29T05:39:27.798Z,50.867176
2022-11-29T05:40:27.775Z,50.867107
2022-11-29T05:41:27.777Z,50.867035
2022-11-29T05:42:27.779Z,50.867184
2022-11-29T05:43:29.632Z,50.867088
2022-11-29T05:44:27.772Z,50.867085
2022-11-29T05:45:27.734Z,50.867126
2022-11-29T05:46:28.707Z,50.866875
2022-11-29T06:01:37.146Z,50.866776
2022-11-29T06:02:36.148Z,50.866798
2022-11-29T06:03:36.089Z,50.866665
2022-11-29T06:04:36.087Z,50.866608
2022-11-29T06:05:36.077Z,50.866768
2022-11-29T06:06:36.100Z,50.866650
2022-11-29T06:07:38.670Z,50.866611
2022-11-29T06:08:37.560Z,50.866547
2022-11-29T06:09:36.554Z,50.866623
2022-11-29T06:10:36.035Z,50.866673
2022-11-29T06:11:36.027Z,50.866726
2022-11-29T06:12:37.574Z,50.866585
2022-11-29T06:13:36.010Z,50.866615
2022-11-29T06:14:36.078Z,50.866581
2022-11-29T06:15:35.994Z,50.866673
2022-11-29T06:16:36.056Z,50.866634
2022-11-29T06:17:39.255Z,50.866650
2022-11-29T06:18:36.968Z,50.866486
2022-11-29T06:19:35.994Z,50.866638
2022-11-29T06:20:35.960Z,50.866817
2022-11-29T06:21:37.559Z,50.866844
2022-11-29T06:22:35.939Z,50.866993
2022-11-29T06:23:35.945Z,50.866684
2022-11-29T06:24:35.930Z,50.866650
2022-11-29T06:25:35.918Z,50.866608
2022-11-29T06:26:38.988Z,50.866611
2022-11-29T06:27:35.912Z,50.866611
2022-11-29T06:28:36.488Z,50.866531
2022-11-29T06:29:36.485Z,50.866539
2022-11-29T06:30:35.891Z,50.866661
2022-11-29T06:31:36.917Z,50.866695
2022-11-29T06:32:35.870Z,50.866589
2022-11-29T06:33:35.852Z,50.866501
2022-11-29T06:34:35.864Z,50.866425
2022-11-29T06:35:35.861Z,50.866478
2022-11-29T06:36:35.875Z,50.866409
2022-11-29T06:37:35.830Z,50.866470
2022-11-29T06:38:35.819Z,50.866505
2022-11-29T06:39:35.802Z,50.866455
2022-11-29T06:40:35.820Z,50.866436
2022-11-29T06:41:35.800Z,50.866459
2022-11-29T06:42:35.781Z,50.866562
2022-11-29T06:43:35.774Z,50.866528
2022-11-29T06:44:35.775Z,50.866581
2022-11-29T06:45:35.763Z,50.866447
2022-11-29T06:46:35.817Z,50.866474
2022-11-29T06:47:35.737Z,50.866646
2022-11-29T06:48:35.752Z,50.866661
2022-11-29T06:49:35.721Z,50.866619
2022-11-29T06:50:35.744Z,50.866627
2022-11-29T06:51:35.718Z,50.866596
2022-11-29T06:52:35.748Z,50.866573
2022-11-29T06:53:35.697Z,50.866570
2022-11-29T06:54:35.683Z,50.866596
2022-11-29T06:55:35.679Z,50.866592
2022-11-29T06:56:40.965Z,50.866623
2022-11-29T06:57:39.483Z,50.866650
2022-11-29T06:58:36.338Z,50.866581
2022-11-29T06:59:39.506Z,50.866562
2022-11-29T07:00:35.671Z,50.866684
2022-11-29T07:01:35.665Z,50.866718
2022-11-29T07:02:35.623Z,50.866611
2022-11-29T07:03:35.617Z,50.866722
2022-11-29T07:04:35.618Z,50.866707
2022-11-29T07:05:35.600Z,50.866661
2022-11-29T07:06:35.605Z,50.866623
2022-11-29T07:07:35.640Z,50.866581
2022-11-29T07:08:35.582Z,50.866539
2022-11-29T07:09:35.564Z,50.866520
2022-11-29T07:10:36.176Z,50.866562
2022-11-29T07:11:35.556Z,50.866600
2022-11-29T07:12:35.539Z,50.866604
2022-11-29T07:13:35.531Z,50.866657
2022-11-29T07:14:35.537Z,50.866695
2022-11-29T07:15:35.522Z,50.866669
2022-11-29T07:16:35.557Z,50.866653
2022-11-29T07:17:36.073Z,50.866695
2022-11-29T07:18:35.493Z,50.866688
2022-11-29T07:19:35.485Z,50.866692
2022-11-29T07:20:35.999Z,50.866619
2022-11-29T07:21:35.480Z,50.866623
2022-11-29T07:22:35.470Z,50.866623
2022-11-29T07:23:37.129Z,50.866615
2022-11-29T07:24:36.990Z,50.866631
2022-11-29T07:25:35.438Z,50.866673
2022-11-29T07:26:35.430Z,50.866711
2022-11-29T07:27:36.057Z,50.866756
2022-11-29T07:28:37.073Z,50.866741
2022-11-29T07:29:35.415Z,50.866722
2022-11-29T07:30:35.402Z,50.866829
2022-11-29T07:31:35.478Z,50.866726
2022-11-29T07:32:35.384Z,50.866840
2022-11-29T07:33:36.073Z,50.866791
2022-11-29T07:34:35.381Z,50.866756
2022-11-29T07:35:35.366Z,50.866737
2022-11-29T07:36:35.355Z,50.866726
2022-11-29T07:37:35.341Z,50.866734
2022-11-29T07:38:35.330Z,50.866764
2022-11-29T07:39:35.336Z,50.866848
2022-11-29T07:40:37.774Z,50.866814
2022-11-29T07:41:36.313Z,50.866760
2022-11-29T07:42:35.305Z,50.866718
2022-11-29T07:43:35.298Z,50.866802
2022-11-29T07:44:35.279Z,50.866665
2022-11-29T07:45:35.279Z,50.866669
2022-11-29T07:46:35.345Z,50.866737
2022-11-29T07:47:36.109Z,50.866760
2022-11-29T07:48:36.258Z,50.866711
2022-11-29T07:49:35.248Z,50.866711
2022-11-29T07:50:35.245Z,50.866627
2022-11-29T07:51:35.231Z,50.866711
2022-11-29T07:52:35.231Z,50.866795
2022-11-29T07:53:35.219Z,50.866806
2022-11-29T07:54:35.210Z,50.866817
2022-11-29T07:55:35.204Z,50.866772
2022-11-29T07:56:35.188Z,50.866718
2022-11-29T07:57:35.213Z,50.866749
2022-11-29T07:58:35.206Z,50.866730
2022-11-29T07:59:35.174Z,50.866699
2022-11-29T08:00:35.270Z,50.866707
2022-11-29T08:01:35.146Z,50.866730
2022-11-29T08:02:35.186Z,50.866692
2022-11-29T08:03:35.143Z,50.866741
2022-11-29T08:04:35.131Z,50.866707
2022-11-29T08:05:35.118Z,50.866711
2022-11-29T08:06:36.076Z,50.866695
2022-11-29T08:07:35.146Z,50.866707
2022-11-29T08:08:37.887Z,50.866718
2022-11-29T08:09:37.082Z,50.866653
2022-11-29T08:10:35.999Z,50.866661
2022-11-29T08:11:35.067Z,50.866783
2022-11-29T08:12:35.064Z,50.866676
2022-11-29T08:13:41.004Z,50.866669
2022-11-29T08:14:36.574Z,50.866661
2022-11-29T08:15:36.152Z,50.866714
2022-11-29T08:20:45.638Z,50.866535
2022-11-29T08:21:45.625Z,50.866436
2022-11-29T08:22:45.632Z,50.866436
2022-11-29T08:23:45.606Z,50.866447
2022-11-29T08:24:45.816Z,50.866337
2022-11-29T08:25:45.598Z,50.866592
2022-11-29T08:26:46.500Z,50.866676
2022-11-29T08:27:46.580Z,50.866676
2022-11-29T08:28:45.569Z,50.866684
2022-11-29T08:29:45.606Z,50.866730
2022-11-29T08:30:45.546Z,50.866764
2022-11-29T08:31:45.604Z,50.866756
2022-11-29T08:32:51.125Z,50.866714
2022-11-29T08:33:47.537Z,50.866707
2022-11-29T08:34:45.869Z,50.866703
2022-11-29T08:35:45.513Z,50.866737
2022-11-29T08:36:45.515Z,50.866741
2022-11-29T08:37:45.493Z,50.866688
2022-11-29T08:38:45.489Z,50.866699
2022-11-29T08:39:45.477Z,50.866737
2022-11-29T08:40:45.478Z,50.866760
2022-11-29T08:41:45.474Z,50.866714
2022-11-29T08:42:45.477Z,50.866699
2022-11-29T08:43:45.456Z,50.866749
2022-11-29T08:44:45.797Z,50.866734
2022-11-29T08:45:47.139Z,50.866699
2022-11-29T08:46:45.425Z,50.866722
2022-11-29T08:47:46.012Z,50.866703
2022-11-29T08:48:45.431Z,50.866718
2022-11-29T08:49:45.416Z,50.866722
2022-11-29T08:50:45.414Z,50.866703
2022-11-29T08:51:46.397Z,50.866699
2022-11-29T08:52:45.412Z,50.866699
2022-11-29T08:53:45.374Z,50.866718
2022-11-29T08:54:45.671Z,50.866741
2022-11-29T08:55:45.374Z,50.866814
2022-11-29T08:57:31.478Z,50.866726
2022-11-29T08:57:47.341Z,50.866726
2022-11-29T08:58:45.334Z,50.866741
2022-11-29T08:59:45.325Z,50.866741
2022-11-29T09:00:46.167Z,50.866879
2022-11-29T09:01:45.323Z,50.866806
2022-11-29T09:02:45.298Z,50.866852
2022-11-29T09:03:45.284Z,50.866867
2022-11-29T09:04:45.549Z,50.866856
2022-11-29T09:05:45.298Z,50.866814
2022-11-29T09:06:45.301Z,50.866852
2022-11-29T09:07:46.208Z,50.866806
2022-11-29T09:08:45.248Z,50.866787
2022-11-29T09:09:45.237Z,50.866810
2022-11-29T09:10:45.230Z,50.866833
2022-11-29T09:11:49.269Z,50.866886
2022-11-29T09:12:46.241Z,50.866924
2022-11-29T09:13:45.224Z,50.866798
2022-11-29T09:14:45.602Z,50.866337
2022-11-29T09:15:45.204Z,50.866211
2022-11-29T09:16:45.327Z,50.866310
2022-11-29T09:17:45.175Z,50.866402
2022-11-29T09:18:51.205Z,50.866722
2022-11-29T09:19:47.157Z,50.867023
2022-11-29T09:20:45.168Z,50.867252
2022-11-29T09:21:45.151Z,50.867378
2022-11-29T09:22:45.148Z,50.867336
2022-11-29T09:23:45.135Z,50.867302
2022-11-29T09:24:45.424Z,50.867191
2022-11-29T09:25:45.198Z,50.867485
2022-11-29T09:26:45.309Z,50.867409
2022-11-29T09:27:45.330Z,50.867245
2022-11-29T09:28:46.309Z,50.867081
2022-11-29T09:29:46.982Z,50.866940
2022-11-29T09:30:45.094Z,50.866932
2022-11-29T09:31:45.114Z,50.866936
2022-11-29T09:32:45.057Z,50.866928
2022-11-29T09:33:45.044Z,50.866871
2022-11-29T09:34:45.464Z,50.866711
2022-11-29T09:35:45.040Z,50.866676
2022-11-29T09:36:45.054Z,50.866749
2022-11-29T09:37:45.028Z,50.866879
2022-11-29T09:38:45.014Z,50.866970
2022-11-29T09:39:45.004Z,50.866798
2022-11-29T09:40:45.027Z,50.866760
2022-11-29T09:41:48.354Z,50.866726
2022-11-29T09:42:47.513Z,50.866676
2022-11-29T09:43:44.973Z,50.866711
2022-11-29T09:44:45.124Z,50.866829
2022-11-29T09:45:44.970Z,50.866653
2022-11-29T09:46:44.972Z,50.866631
2022-11-29T09:47:44.931Z,50.866673
2022-11-29T09:48:44.933Z,50.866676
2022-11-29T09:49:45.002Z,50.866673
2022-11-29T09:50:44.928Z,50.866703
2022-11-29T09:51:44.906Z,50.866749
2022-11-29T09:52:45.593Z,50.866714
2022-11-29T09:53:44.893Z,50.866734
2022-11-29T09:54:45.999Z,50.866779
2022-11-29T09:55:44.900Z,50.866764
2022-11-29T09:56:44.883Z,50.866730
2022-11-29T09:57:44.885Z,50.866737
2022-11-29T09:58:44.852Z,50.866741
2022-11-29T09:59:44.843Z,50.866692
2022-11-29T10:00:45.518Z,50.866779
2022-11-29T10:01:44.833Z,50.866760
2022-11-29T10:02:44.920Z,50.866779
2022-11-29T10:03:46.606Z,50.866730
2022-11-29T10:04:45.131Z,50.866737
2022-11-29T10:05:44.801Z,50.866688
2022-11-29T10:06:44.814Z,50.866768
2022-11-29T10:07:44.819Z,50.866722
2022-11-29T10:08:44.785Z,50.866714
2022-11-29T10:09:44.807Z,50.866802
2022-11-29T10:10:44.748Z,50.866791
2022-11-29T10:11:44.744Z,50.866798
2022-11-29T10:12:44.731Z,50.866714
2022-11-29T10:13:44.738Z,50.866684
2022-11-29T10:14:45.002Z,50.866730
2022-11-29T10:15:45.526Z,50.866783
2022-11-29T10:16:45.684Z,50.866741
2022-11-29T10:17:44.702Z,50.866772
2022-11-29T10:18:44.694Z,50.866844
2022-11-29T10:19:44.698Z,50.866898
2022-11-29T10:20:48.801Z,50.866844
2022-11-29T10:21:45.723Z,50.866825
2022-11-29T10:22:45.647Z,50.866806
2022-11-29T10:23:45.652Z,50.866791
2022-11-29T10:24:44.958Z,50.866787
2022-11-29T10:25:44.641Z,50.866764
2022-11-29T10:26:44.629Z,50.866692
2022-11-29T10:27:45.522Z,50.866737
2022-11-29T10:28:44.605Z,50.866703
2022-11-29T10:29:46.107Z,50.866707
2022-11-29T10:30:44.671Z,50.866718
2022-11-29T10:31:44.595Z,50.866699
2022-11-29T10:32:44.573Z,50.866764
2022-11-29T10:33:44.572Z,50.866745
2022-11-29T10:34:44.886Z,50.866734
2022-11-29T10:35:44.548Z,50.866741
2022-11-29T10:36:44.555Z,50.866703
2022-11-29T10:38:01.409Z,50.866699
2022-11-29T10:38:46.528Z,50.866760
2022-11-29T10:39:44.512Z,50.866768
2022-11-29T10:40:44.519Z,50.866734
2022-11-29T10:41:44.512Z,50.866756
2022-11-29T10:42:44.496Z,50.866737
2022-11-29T10:43:44.499Z,50.866814
2022-11-29T10:44:44.635Z,50.866787
2022-11-29T10:45:44.549Z,50.866772
2022-11-29T10:46:44.457Z,50.866875
2022-11-29T10:47:44.452Z,50.866798
2022-11-29T10:48:44.523Z,50.866814
2022-11-29T10:49:44.439Z,50.866772
2022-11-29T10:50:44.425Z,50.866783
2022-11-29T10:51:44.424Z,50.866741
2022-11-29T10:52:44.410Z,50.866791
2022-11-29T10:53:44.435Z,50.866825
2022-11-29T10:58:54.044Z,50.866791
2022-11-29T10:59:54.051Z,50.866814
2022-11-29T11:00:54.118Z,50.866791
2022-11-29T11:01:57.845Z,50.866867
2022-11-29T11:10:01.932Z,50.866077
2022-11-29T11:11:02.349Z,50.866531
2022-11-29T11:12:01.904Z,50.866165
2022-11-29T11:13:01.912Z,50.865932
2022-11-29T11:14:02.815Z,50.866383
2022-11-29T11:15:01.872Z,50.866657
2022-11-29T11:16:01.870Z,50.866699
2022-11-29T11:17:01.900Z,50.866676
2022-11-29T11:18:01.853Z,50.866684
2022-11-29T11:19:03.300Z,50.866680
2022-11-29T11:20:02.839Z,50.866699
2022-11-29T11:21:01.824Z,50.866745
2022-11-29T11:22:01.817Z,50.866760
2022-11-29T11:23:02.347Z,50.866772
2022-11-29T11:24:01.822Z,50.866764
2022-11-29T11:25:02.751Z,50.866772
2022-11-29T11:26:01.803Z,50.866760
2022-11-29T11:27:01.779Z,50.866749
2022-11-29T11:28:01.785Z,50.866764
2022-11-29T11:29:01.760Z,50.866779
2022-11-29T11:30:04.347Z,50.866783
2022-11-29T11:31:02.797Z,50.866756
2022-11-29T11:32:01.763Z,50.866791
2022-11-29T11:33:01.755Z,50.866764
2022-11-29T11:34:01.721Z,50.866772
2022-11-29T11:39:50.219Z,50.866829
2022-11-29T11:40:53.650Z,50.866894
2022-11-29T11:41:52.162Z,50.866741
2022-11-29T11:42:50.979Z,50.866688
2022-11-29T11:43:50.159Z,50.866714
2022-11-29T11:44:50.157Z,50.866680
2022-11-29T11:45:50.221Z,50.866726
2022-11-29T11:46:51.099Z,50.866821
2022-11-29T11:47:50.165Z,50.866566
2022-11-29T11:48:50.576Z,50.866558
2022-11-29T11:49:50.991Z,50.866459
2022-11-29T11:50:50.095Z,50.866409
2022-11-29T11:51:50.081Z,50.866512
2022-11-29T11:52:50.960Z,50.866638
2022-11-29T11:53:51.065Z,50.866699
2022-11-29T11:54:51.081Z,50.866955
2022-11-29T11:55:50.062Z,50.866787
2022-11-29T11:56:51.557Z,50.866970
2022-11-29T11:57:50.632Z,50.867184
2022-11-29T11:58:50.237Z,50.868305
2022-11-29T11:59:50.035Z,50.868687
2022-11-29T12:08:07.837Z,50.867123
2022-11-29T12:09:00.940Z,50.867062
2022-11-29T12:10:00.715Z,50.866657
2022-11-29T12:11:01.552Z,50.866898
2022-11-29T12:12:00.869Z,50.866997
2022-11-29T12:12:58.861Z,50.866730